createdAt,value
2019-04-07T00:01:33.602Z,64.57
2019-04-07T00:04:02.088Z,64.83
2019-04-07T00:06:30.666Z,64.77
2019-04-07T00:08:59.253Z,63.27
2019-04-07T00:11:27.847Z,67.43
2019-04-07T00:13:56.307Z,63.77
2019-04-07T00:16:25.157Z,64.40
2019-04-07T00:18:54.427Z,68.27
2019-04-07T00:21:23.017Z,65.90
2019-04-07T00:23:51.455Z,64.23
2019-04-07T00:26:20.332Z,67.93
2019-04-07T00:28:48.795Z,66.50
2019-04-07T00:31:17.215Z,67.27
2019-04-07T00:33:45.673Z,66.80
2019-04-07T00:36:14.120Z,67.83
2019-04-07T00:38:42.548Z,65.77
2019-04-07T00:41:11.017Z,66.67
2019-04-07T00:43:39.591Z,67.23
2019-04-07T00:46:08.789Z,68.50
2019-04-07T00:48:37.303Z,67.43
2019-04-07T00:51:05.755Z,65.93
2019-04-07T00:53:34.304Z,68.87
2019-04-07T00:56:02.894Z,65.90
2019-04-07T00:58:31.865Z,67.40
2019-04-07T01:01:00.966Z,67.60
2019-04-07T01:03:30.194Z,69.57
2019-04-07T01:05:58.784Z,68.80
2019-04-07T01:08:27.295Z,70.60
2019-04-07T01:10:55.911Z,67.43
2019-04-07T01:13:24.742Z,69.33
2019-04-07T01:15:53.774Z,69.20
2019-04-07T01:18:22.246Z,69.17
2019-04-07T01:20:50.937Z,69.90
2019-04-07T01:23:19.429Z,70.50
2019-04-07T01:25:47.953Z,73.13
2019-04-07T01:28:16.403Z,72.57
2019-04-07T01:30:44.925Z,73.63
2019-04-07T01:33:13.440Z,72.10
2019-04-07T01:35:48.214Z,72.83
2019-04-07T01:38:12.568Z,70.27
2019-04-07T01:40:42.776Z,69.33
2019-04-07T01:43:12.833Z,71.40
2019-04-07T01:45:48.855Z,73.87
2019-04-07T01:48:19.294Z,69.93
2019-04-07T01:50:49.480Z,70.90
2019-04-07T01:53:31.464Z,72.27
2019-04-07T01:56:04.244Z,70.97
2019-04-07T01:58:50.254Z,71.23
2019-04-07T02:01:21.026Z,74.27
2019-04-07T02:04:06.829Z,70.40
2019-04-07T02:06:53.275Z,67.90
2019-04-07T02:09:23.698Z,69.63
2019-04-07T02:12:00.523Z,72.70
2019-04-07T02:14:45.596Z,74.07
2019-04-07T02:17:21.915Z,77.90
2019-04-07T02:20:05.114Z,74.60
2019-04-07T02:22:35.456Z,75.87
2019-04-07T02:25:13.925Z,73.17
2019-04-07T02:28:03.372Z,76.00
2019-04-07T02:30:49.692Z,72.17
2019-04-07T02:33:19.751Z,74.60
2019-04-07T02:35:52.648Z,72.07
2019-04-07T02:38:23.084Z,74.77
2019-04-07T02:41:08.968Z,71.50
2019-04-07T02:43:55.455Z,73.80
2019-04-07T02:46:41.860Z,72.53
2019-04-07T02:49:26.826Z,72.23
2019-04-07T02:52:00.514Z,71.23
2019-04-07T02:54:33.251Z,77.30
2019-04-07T02:57:03.559Z,77.97
2019-04-07T02:59:33.964Z,77.57
2019-04-07T03:02:04.745Z,75.47
2019-04-07T03:04:51.295Z,80.17
2019-04-07T03:07:36.275Z,71.63
2019-04-07T03:10:25.093Z,75.70
2019-04-07T03:13:04.986Z,77.63
2019-04-07T03:15:52.788Z,78.77
2019-04-07T03:18:26.998Z,77.70
2019-04-07T03:21:03.270Z,79.07
2019-04-07T03:23:51.459Z,79.63
2019-04-07T03:26:37.888Z,75.23
2019-04-07T03:29:08.564Z,76.17
2019-04-07T03:31:56.226Z,75.17
2019-04-07T03:34:32.583Z,75.27
2019-04-07T03:37:32.658Z,79.17
2019-04-07T03:39:34.452Z,75.73
2019-04-07T03:42:19.613Z,74.67
2019-04-07T03:44:49.687Z,81.83
2019-04-07T03:47:20.322Z,79.10
2019-04-07T03:50:03.365Z,81.20
2019-04-07T03:52:36.411Z,77.30
2019-04-07T03:55:11.058Z,77.37
2019-04-07T03:57:57.460Z,77.97
2019-04-07T04:01:01.303Z,80.17
2019-04-07T04:03:32.254Z,79.87
2019-04-07T04:06:19.404Z,81.03
2019-04-07T04:08:55.959Z,77.27
2019-04-07T04:11:29.157Z,77.70
2019-04-07T04:14:11.164Z,79.17
2019-04-07T04:16:42.338Z,81.93
2019-04-07T04:19:11.112Z,79.67
2019-04-07T04:21:40.306Z,83.63
2019-04-07T04:24:08.836Z,81.10
2019-04-07T04:26:37.908Z,81.60
2019-04-07T04:29:06.411Z,81.27
2019-04-07T04:31:35.722Z,82.20
2019-04-07T04:34:04.376Z,81.50
2019-04-07T04:36:33.500Z,82.63
2019-04-07T04:39:02.015Z,83.23
2019-04-07T04:41:30.466Z,83.13
2019-04-07T04:44:00.411Z,83.10
2019-04-07T04:46:28.923Z,81.23
2019-04-07T04:48:57.345Z,84.50
2019-04-07T04:51:26.187Z,83.40
2019-04-07T04:53:54.686Z,88.07
2019-04-07T04:56:24.064Z,85.50
2019-04-07T04:58:53.260Z,86.43
2019-04-07T05:01:21.930Z,88.03
2019-04-07T05:03:50.704Z,85.47
2019-04-07T05:06:19.889Z,84.07
2019-04-07T05:08:48.636Z,85.27
2019-04-07T05:11:17.484Z,88.53
2019-04-07T05:13:46.700Z,87.47
2019-04-07T05:16:15.203Z,85.10
2019-04-07T05:18:43.712Z,85.13
2019-04-07T05:21:13.439Z,90.23
2019-04-07T05:23:42.229Z,88.90
2019-04-07T05:26:11.001Z,88.10
2019-04-07T05:28:39.627Z,89.87
2019-04-07T05:31:08.842Z,90.67
2019-04-07T05:33:37.362Z,90.93
2019-04-07T05:36:06.001Z,92.67
2019-04-07T05:38:34.584Z,92.80
2019-04-07T05:41:03.038Z,97.63
2019-04-07T05:43:31.578Z,94.57
2019-04-07T05:46:00.688Z,96.70
2019-04-07T05:48:29.263Z,99.47
2019-04-07T05:50:59.943Z,101.03
2019-04-07T05:53:27.898Z,100.53
2019-04-07T05:55:56.330Z,103.73
2019-04-07T05:58:24.752Z,103.40
2019-04-07T06:00:53.369Z,106.40
2019-04-07T06:03:22.009Z,104.07
2019-04-07T06:05:51.273Z,110.00
2019-04-07T06:08:27.951Z,112.50
2019-04-07T06:10:50.312Z,108.70
2019-04-07T06:13:19.108Z,107.13
2019-04-07T06:15:49.377Z,107.40
2019-04-07T06:18:18.442Z,107.60
2019-04-07T06:20:47.548Z,108.80
2019-04-07T06:23:16.076Z,106.23
2019-04-07T06:25:45.152Z,104.43
2019-04-07T06:28:17.227Z,104.57
2019-04-07T06:30:44.964Z,99.03
2019-04-07T06:33:14.004Z,96.77
2019-04-07T06:35:44.975Z,98.83
2019-04-07T06:38:13.261Z,98.10
2019-04-07T06:40:41.715Z,95.50
2019-04-07T06:43:10.196Z,92.87
2019-04-07T06:45:40.821Z,89.93
2019-04-07T06:48:11.419Z,91.17
2019-04-07T06:50:57.740Z,86.93
2019-04-07T06:53:22.181Z,84.43
2019-04-07T06:55:59.112Z,84.60
2019-04-07T06:58:33.094Z,80.40
2019-04-07T07:01:15.387Z,80.43
2019-04-07T07:03:45.488Z,78.33
2019-04-07T07:06:18.504Z,75.83
2019-04-07T07:08:53.027Z,81.00
2019-04-07T07:11:28.873Z,77.13
2019-04-07T07:14:14.354Z,78.73
2019-04-07T07:16:49.069Z,71.87
2019-04-07T07:19:35.258Z,64.40
2019-04-07T07:22:16.096Z,67.33
2019-04-07T07:24:46.797Z,59.87
2019-04-07T07:27:15.368Z,57.50
2019-04-07T07:29:46.032Z,59.27
2019-04-07T07:32:14.737Z,57.30
2019-04-07T07:34:43.397Z,57.43
2019-04-07T07:37:12.572Z,51.60
2019-04-07T07:39:42.717Z,50.17
2019-04-07T07:42:12.161Z,49.10
2019-04-07T07:44:40.644Z,47.87
2019-04-07T07:47:09.128Z,45.83
2019-04-07T07:49:40.294Z,45.43
2019-04-07T07:52:07.804Z,44.97
2019-04-07T07:54:36.787Z,44.80
2019-04-07T07:57:05.272Z,42.20
2019-04-07T07:59:37.869Z,42.70
2019-04-07T08:02:03.875Z,42.47
2019-04-07T08:04:32.335Z,41.53
2019-04-07T08:07:02.361Z,40.43
2019-04-07T08:09:31.713Z,36.97
2019-04-07T08:12:01.612Z,36.17
2019-04-07T08:14:30.537Z,36.77
2019-04-07T08:17:01.609Z,36.07
2019-04-07T08:19:30.531Z,34.70
2019-04-07T08:21:59.660Z,35.13
2019-04-07T08:24:28.339Z,31.33
2019-04-07T08:26:58.855Z,28.97
2019-04-07T08:29:27.980Z,28.53
2019-04-07T08:31:56.639Z,28.10
2019-04-07T08:34:25.493Z,27.20
2019-04-07T08:36:54.110Z,26.30
2019-04-07T08:39:25.587Z,26.80
2019-04-07T08:41:52.931Z,24.13
2019-04-07T08:44:21.580Z,25.00
2019-04-07T08:46:50.820Z,24.17
2019-04-07T08:49:23.374Z,24.17
2019-04-07T08:51:49.563Z,22.93
2019-04-07T08:54:18.433Z,23.07
2019-04-07T08:56:46.956Z,23.00
2019-04-07T08:59:17.069Z,23.73
2019-04-07T09:01:45.731Z,24.33
2019-04-07T09:04:16.489Z,22.43
2019-04-07T09:06:44.942Z,21.43
2019-04-07T09:09:14.040Z,22.13
2019-04-07T09:11:42.543Z,21.83
2019-04-07T09:14:11.103Z,22.20
2019-04-07T09:16:59.178Z,21.80
2019-04-07T09:19:44.359Z,21.33
2019-04-07T09:22:14.467Z,21.03
2019-04-07T09:24:53.230Z,20.60
2019-04-07T09:27:39.898Z,21.23
2019-04-07T09:30:13.047Z,20.60
2019-04-07T09:32:59.599Z,20.23
2019-04-07T09:35:45.684Z,20.20
2019-04-07T09:38:32.050Z,21.03
2019-04-07T09:41:21.783Z,20.35
2019-04-07T09:44:05.257Z,19.00
2019-04-07T09:46:51.329Z,17.65
2019-04-07T09:49:27.635Z,15.58
2019-04-07T09:52:15.714Z,15.20
2019-04-07T09:54:46.029Z,16.15
2019-04-07T09:57:28.069Z,16.07
2019-04-07T10:00:10.272Z,14.73
2019-04-07T10:02:40.363Z,16.00
2019-04-07T10:05:22.244Z,14.45
2019-04-07T10:08:04.442Z,16.55
2019-04-07T10:10:37.168Z,15.13
2019-04-07T10:13:24.030Z,13.90
2019-04-07T10:16:10.994Z,14.03
2019-04-07T10:18:42.810Z,14.50
2019-04-07T10:21:15.836Z,13.98
2019-04-07T10:23:48.687Z,13.10
2019-04-07T10:26:33.880Z,14.18
2019-04-07T10:29:09.827Z,12.33
2019-04-07T10:31:46.401Z,13.43
2019-04-07T10:34:19.478Z,13.98
2019-04-07T10:36:55.731Z,12.88
2019-04-07T10:39:25.935Z,12.90
2019-04-07T10:42:12.479Z,13.38
2019-04-07T10:44:43.384Z,12.13
2019-04-07T10:47:17.111Z,12.03
2019-04-07T10:50:00.653Z,13.85
2019-04-07T10:52:33.936Z,13.18
2019-04-07T10:55:20.629Z,12.82
2019-04-07T10:57:51.622Z,12.98
2019-04-07T11:00:34.882Z,12.58
2019-04-07T11:03:11.007Z,14.55
2019-04-07T11:05:50.428Z,13.55
2019-04-07T11:08:20.562Z,13.25
2019-04-07T11:11:08.499Z,13.58
2019-04-07T11:13:55.287Z,13.30
2019-04-07T11:16:34.268Z,13.03
2019-04-07T11:19:20.332Z,13.90
2019-04-07T11:21:53.111Z,13.03
2019-04-07T11:24:23.995Z,14.13
2019-04-07T11:26:56.870Z,12.75
2019-04-07T11:29:33.731Z,12.30
2019-04-07T11:32:10.416Z,12.37
2019-04-07T11:34:43.251Z,12.53
2019-04-07T11:37:14.280Z,12.05
2019-04-07T11:39:59.292Z,11.70
2019-04-07T11:42:41.595Z,12.18
2019-04-07T11:45:18.031Z,10.80
2019-04-07T11:47:51.119Z,11.83
2019-04-07T11:50:37.071Z,11.88
2019-04-07T11:53:07.577Z,11.73
2019-04-07T11:55:37.762Z,12.05
2019-04-07T11:58:26.039Z,12.20
2019-04-07T12:01:06.912Z,12.37
2019-04-07T12:03:49.207Z,11.83
2019-04-07T12:06:20.182Z,12.73
2019-04-07T12:08:51.134Z,12.25
2019-04-07T12:11:24.592Z,11.78
2019-04-07T12:13:54.739Z,12.43
2019-04-07T12:16:37.103Z,11.85
2019-04-07T12:19:11.300Z,12.50
2019-04-07T12:21:51.216Z,13.03
2019-04-07T12:24:30.737Z,12.05
2019-04-07T12:27:01.994Z,11.65
2019-04-07T12:29:48.198Z,12.13
2019-04-07T12:32:19.079Z,13.15
2019-04-07T12:34:58.042Z,13.45
2019-04-07T12:37:39.256Z,13.40
2019-04-07T12:40:25.983Z,13.43
2019-04-07T12:43:13.208Z,11.73
2019-04-07T12:45:46.644Z,12.30
2019-04-07T12:48:20.027Z,12.05
2019-04-07T12:50:57.297Z,12.45
2019-04-07T12:53:36.035Z,11.90
2019-04-07T12:56:08.065Z,12.10
2019-04-07T12:58:54.281Z,12.00
2019-04-07T13:01:24.990Z,12.50
2019-04-07T13:03:57.614Z,11.95
2019-04-07T13:06:31.018Z,12.20
2019-04-07T13:09:07.117Z,12.23
2019-04-07T13:11:45.303Z,11.73
2019-04-07T13:14:15.139Z,11.40
2019-04-07T13:17:00.947Z,11.80
2019-04-07T13:19:32.129Z,12.90
2019-04-07T13:22:08.121Z,11.88
2019-04-07T13:24:39.207Z,12.23
2019-04-07T13:27:10.265Z,11.35
2019-04-07T13:29:43.334Z,11.38
2019-04-07T13:32:39.433Z,11.88
2019-04-07T13:35:03.140Z,11.97
2019-04-07T13:37:33.206Z,12.20
2019-04-07T13:40:10.155Z,11.80
2019-04-07T13:42:57.427Z,12.30
2019-04-07T13:45:44.538Z,11.57
2019-04-07T13:48:17.547Z,12.10
2019-04-07T13:50:55.551Z,11.68
2019-04-07T13:53:42.148Z,11.63
2019-04-07T13:56:15.548Z,10.95
2019-04-07T13:58:47.621Z,11.83
2019-04-07T14:01:23.804Z,11.57
2019-04-07T14:04:02.766Z,11.50
2019-04-07T14:06:46.451Z,11.65
2019-04-07T14:09:32.304Z,12.70
2019-04-07T14:12:15.238Z,11.97
2019-04-07T14:14:49.450Z,11.18
2019-04-07T14:17:36.292Z,12.43
2019-04-07T14:20:26.836Z,11.38
2019-04-07T14:22:57.725Z,12.40
2019-04-07T14:25:30.949Z,11.55
2019-04-07T14:28:04.749Z,12.58
2019-04-07T14:30:54.027Z,11.68
2019-04-07T14:33:24.604Z,12.50
2019-04-07T14:36:10.716Z,12.20
2019-04-07T14:38:43.668Z,11.93
2019-04-07T14:41:16.235Z,11.50
2019-04-07T14:43:49.700Z,11.87
2019-04-07T14:46:21.145Z,13.63
2019-04-07T14:49:01.077Z,14.07
2019-04-07T14:51:47.239Z,12.07
2019-04-07T14:54:17.459Z,11.73
2019-04-07T14:56:50.527Z,12.33
2019-04-07T14:59:23.974Z,12.80
2019-04-07T15:01:52.431Z,11.60
2019-04-07T15:04:22.657Z,11.93
2019-04-07T15:07:05.411Z,12.30
2019-04-07T15:09:33.737Z,12.63
2019-04-07T15:12:17.104Z,14.20
2019-04-07T15:14:37.310Z,13.07
2019-04-07T15:17:05.869Z,13.33
2019-04-07T15:19:35.120Z,12.80
2019-04-07T15:22:04.574Z,11.83
2019-04-07T15:24:35.934Z,11.90
2019-04-07T15:27:05.906Z,11.83
2019-04-07T15:29:38.633Z,13.63
2019-04-07T15:32:07.122Z,15.00
2019-04-07T15:34:39.189Z,14.43
2019-04-07T15:37:06.695Z,15.40
2019-04-07T15:39:37.236Z,14.53
2019-04-07T15:42:07.974Z,14.90
2019-04-07T15:44:39.067Z,15.17
2019-04-07T15:47:06.217Z,16.37
2019-04-07T15:49:35.004Z,16.87
2019-04-07T15:52:07.762Z,16.20
2019-04-07T15:54:33.942Z,16.63
2019-04-07T15:57:02.565Z,15.83
2019-04-07T15:59:31.450Z,16.43
2019-04-07T16:02:01.145Z,17.07
2019-04-07T16:04:30.733Z,16.30
2019-04-07T16:07:00.211Z,16.93
2019-04-07T16:09:36.409Z,16.80
2019-04-07T16:12:00.497Z,18.33
2019-04-07T16:14:29.819Z,17.77
2019-04-07T16:17:02.120Z,17.03
2019-04-07T16:19:38.138Z,16.83
2019-04-07T16:22:01.241Z,15.97
2019-04-07T16:24:31.077Z,17.10
2019-04-07T16:27:03.890Z,16.40
2019-04-07T16:29:30.264Z,15.83
2019-04-07T16:31:59.793Z,15.60
2019-04-07T16:34:28.496Z,15.00
2019-04-07T16:36:59.366Z,14.97
2019-04-07T16:39:29.173Z,14.93
2019-04-07T16:41:57.885Z,14.10
2019-04-07T16:44:26.627Z,14.97
2019-04-07T16:46:57.759Z,13.40
2019-04-07T16:49:25.724Z,13.63
2019-04-07T16:51:54.246Z,13.63
2019-04-07T16:54:23.371Z,13.90
2019-04-07T16:56:55.813Z,13.37
2019-04-07T16:59:22.155Z,14.37
2019-04-07T17:01:50.921Z,14.40
2019-04-07T17:04:20.116Z,14.33
2019-04-07T17:06:59.481Z,14.53
2019-04-07T17:09:22.417Z,13.80
2019-04-07T17:11:50.396Z,13.70
2019-04-07T17:14:19.343Z,14.47
2019-04-07T17:16:48.413Z,14.20
2019-04-07T17:19:16.977Z,13.80
2019-04-07T17:21:45.479Z,13.73
2019-04-07T17:24:14.246Z,13.50
2019-04-07T17:26:43.553Z,14.47
2019-04-07T17:29:12.226Z,13.70
2019-04-07T17:31:41.188Z,14.80
2019-04-07T17:34:11.515Z,14.17
2019-04-07T17:36:40.778Z,15.53
2019-04-07T17:39:26.509Z,16.50
2019-04-07T17:41:57.314Z,16.07
2019-04-07T17:44:47.796Z,16.17
2019-04-07T17:47:35.389Z,15.17
2019-04-07T17:50:08.549Z,16.33
2019-04-07T17:52:44.519Z,15.90
2019-04-07T17:55:18.695Z,16.13
2019-04-07T17:57:52.070Z,15.47
2019-04-07T18:00:40.922Z,17.07
2019-04-07T18:03:16.284Z,16.40
2019-04-07T18:05:49.759Z,15.83
2019-04-07T18:08:29.427Z,17.07
2019-04-07T18:11:11.858Z,17.50
2019-04-07T18:13:50.908Z,15.77
2019-04-07T18:16:19.808Z,17.17
2019-04-07T18:18:56.841Z,16.37
2019-04-07T18:21:25.170Z,16.73
2019-04-07T18:24:12.515Z,17.63
2019-04-07T18:26:46.348Z,17.10
2019-04-07T18:29:32.173Z,17.07
2019-04-07T18:32:17.416Z,16.10
2019-04-07T18:34:57.052Z,17.77
2019-04-07T18:37:42.277Z,17.10
2019-04-07T18:40:15.398Z,17.23
2019-04-07T18:43:02.169Z,17.70
2019-04-07T18:45:35.234Z,18.23
2019-04-07T18:48:05.665Z,17.70
2019-04-07T18:50:38.429Z,19.83
2019-04-07T18:53:16.734Z,19.00
2019-04-07T18:55:52.633Z,19.97
2019-04-07T18:58:34.627Z,18.70
2019-04-07T19:01:08.973Z,19.30
2019-04-07T19:03:54.872Z,19.63
2019-04-07T19:06:31.264Z,18.77
2019-04-07T19:09:10.278Z,19.13
2019-04-07T19:12:05.116Z,19.47
2019-04-07T19:14:43.656Z,19.67
2019-04-07T19:17:06.358Z,19.13
2019-04-07T19:19:36.440Z,19.33
2019-04-07T19:22:18.578Z,19.43
2019-04-07T19:24:57.858Z,21.03
2019-04-07T19:27:44.741Z,19.63
2019-04-07T19:30:19.395Z,18.23
2019-04-07T19:32:54.941Z,19.83
2019-04-07T19:35:24.092Z,19.20
2019-04-07T19:37:54.950Z,19.30
2019-04-07T19:40:38.147Z,20.27
2019-04-07T19:43:10.681Z,20.10
2019-04-07T19:45:55.973Z,18.03
2019-04-07T19:48:42.890Z,18.80
2019-04-07T19:51:15.544Z,18.27
2019-04-07T19:53:54.157Z,18.77
2019-04-07T19:56:40.606Z,18.73
2019-04-07T19:59:17.419Z,20.23
2019-04-07T20:01:59.040Z,19.30
2019-04-07T20:04:31.432Z,18.97
2019-04-07T20:07:04.852Z,19.10
2019-04-07T20:09:48.416Z,19.70
2019-04-07T20:12:38.177Z,18.87
2019-04-07T20:15:17.592Z,19.47
2019-04-07T20:17:54.621Z,20.30
2019-04-07T20:20:51.104Z,20.27
2019-04-07T20:23:29.614Z,20.43
2019-04-07T20:26:18.610Z,21.10
2019-04-07T20:28:46.512Z,19.80
2019-04-07T20:31:19.402Z,20.17
2019-04-07T20:34:05.764Z,20.03
2019-04-07T20:36:44.469Z,20.50
2019-04-07T20:39:15.050Z,20.47
2019-04-07T20:41:45.215Z,21.47
2019-04-07T20:44:18.853Z,20.97
2019-04-07T20:46:57.944Z,20.50
2019-04-07T20:49:27.315Z,19.87
2019-04-07T20:52:07.058Z,21.77
2019-04-07T20:54:52.303Z,22.03
2019-04-07T20:57:28.478Z,20.67
2019-04-07T21:00:15.000Z,20.73
2019-04-07T21:03:14.193Z,21.37
2019-04-07T21:05:33.655Z,20.83
2019-04-07T21:08:10.379Z,22.23
2019-04-07T21:10:41.388Z,21.47
2019-04-07T21:13:16.779Z,21.97
2019-04-07T21:15:46.626Z,21.43
2019-04-07T21:18:16.751Z,21.63
2019-04-07T21:20:46.836Z,21.10
2019-04-07T21:23:28.672Z,21.13
2019-04-07T21:26:01.560Z,20.57
2019-04-07T21:28:38.916Z,22.03
2019-04-07T21:31:24.131Z,22.90
2019-04-07T21:33:55.882Z,21.37
2019-04-07T21:36:26.011Z,21.93
2019-04-07T21:38:58.951Z,22.80
2019-04-07T21:41:45.150Z,21.43
2019-04-07T21:44:15.891Z,22.90
2019-04-07T21:46:49.384Z,23.73
2019-04-07T21:49:20.553Z,24.03
2019-04-07T21:51:59.472Z,23.87
2019-04-07T21:54:38.638Z,24.03
2019-04-07T21:57:09.983Z,23.23
2019-04-07T21:59:45.955Z,23.87
2019-04-07T22:02:32.373Z,24.50
2019-04-07T22:05:09.318Z,23.03
2019-04-07T22:07:41.986Z,23.90
2019-04-07T22:10:12.136Z,23.63
2019-04-07T22:12:40.925Z,24.57
2019-04-07T22:15:12.814Z,24.13
2019-04-07T22:17:40.731Z,23.70
2019-04-07T22:20:10.785Z,24.90
2019-04-07T22:22:39.208Z,25.33
2019-04-07T22:25:09.628Z,25.07
2019-04-07T22:27:38.899Z,25.20
2019-04-07T22:30:11.202Z,25.70
2019-04-07T22:32:40.624Z,25.40
2019-04-07T22:35:10.678Z,26.07
2019-04-07T22:37:39.867Z,25.67
2019-04-07T22:40:17.539Z,25.33
2019-04-07T22:42:47.847Z,25.87
2019-04-07T22:45:16.467Z,26.57
2019-04-07T22:47:44.911Z,27.60
2019-04-07T22:50:13.467Z,27.67
2019-04-07T22:52:41.922Z,27.03
2019-04-07T22:55:10.513Z,26.33
2019-04-07T22:57:38.957Z,26.43
2019-04-07T23:00:10.813Z,27.23
2019-04-07T23:02:40.223Z,26.80
2019-04-07T23:05:09.253Z,29.43
2019-04-07T23:07:37.756Z,27.90
2019-04-07T23:10:06.341Z,26.03
2019-04-07T23:12:34.867Z,29.07
2019-04-07T23:15:05.642Z,29.80
2019-04-07T23:17:34.321Z,28.13
2019-04-07T23:20:04.374Z,28.80
2019-04-07T23:22:32.823Z,30.20
2019-04-07T23:25:01.712Z,29.43
2019-04-07T23:27:30.142Z,29.97
2019-04-07T23:29:59.002Z,30.57
2019-04-07T23:32:28.507Z,30.97
2019-04-07T23:34:57.640Z,29.47
2019-04-07T23:37:26.338Z,30.33
2019-04-07T23:39:54.998Z,30.83
2019-04-07T23:42:24.249Z,30.73
2019-04-07T23:44:53.166Z,31.07
2019-04-07T23:47:21.664Z,31.47
2019-04-07T23:49:50.245Z,32.70
2019-04-07T23:52:18.764Z,32.87
2019-04-07T23:54:48.093Z,32.93
2019-04-07T23:57:17.664Z,33.17
2019-04-07T23:59:47.041Z,32.17
